createdAt,value
2019-01-24T00:01:24.526Z,-3.31
2019-01-24T00:04:29.792Z,-3.26
2019-01-24T00:07:35.025Z,-3.38
2019-01-24T00:10:40.179Z,-3.38
2019-01-24T00:13:45.297Z,-3.36
2019-01-24T00:16:51.468Z,-3.22
2019-01-24T00:19:56.613Z,-3.26
2019-01-24T00:23:02.607Z,-3.28
2019-01-24T00:26:07.759Z,-3.31
2019-01-24T00:29:12.854Z,-3.28
2019-01-24T00:32:18.133Z,-3.27
2019-01-24T00:35:24.041Z,-3.30
2019-01-24T00:38:29.223Z,-3.38
2019-01-24T00:41:34.524Z,-3.42
2019-01-24T00:44:39.594Z,-3.35
2019-01-24T00:47:44.801Z,-3.34
2019-01-24T00:50:49.907Z,-3.36
2019-01-24T00:53:54.973Z,-3.30
2019-01-24T00:57:00.117Z,-3.13
2019-01-24T01:00:08.463Z,-3.27
2019-01-24T01:03:15.169Z,-3.34
2019-01-24T01:06:20.266Z,-3.29
2019-01-24T01:09:25.369Z,-3.30
2019-01-24T01:12:30.583Z,-3.26
2019-01-24T01:15:35.775Z,-3.15
2019-01-24T01:18:40.925Z,-3.26
2019-01-24T01:21:46.014Z,-3.19
2019-01-24T01:24:51.290Z,-3.26
2019-01-24T01:27:56.439Z,-3.21
2019-01-24T01:31:01.612Z,-3.22
2019-01-24T01:34:06.757Z,-3.24
2019-01-24T01:37:11.940Z,-2.76
2019-01-24T01:40:18.015Z,-2.82
2019-01-24T01:43:24.295Z,-3.09
2019-01-24T01:46:29.540Z,-3.18
2019-01-24T01:49:34.696Z,-3.06
2019-01-24T01:52:39.804Z,-3.07
2019-01-24T01:55:45.017Z,-3.04
2019-01-24T01:58:52.209Z,-2.86
2019-01-24T02:01:57.344Z,-3.10
2019-01-24T02:05:02.491Z,-3.14
2019-01-24T02:08:07.599Z,-3.14
2019-01-24T02:11:12.823Z,-3.15
2019-01-24T02:14:18.031Z,-2.92
2019-01-24T02:17:23.165Z,-3.12
2019-01-24T02:20:28.355Z,-3.23
2019-01-24T02:23:33.500Z,-3.14
2019-01-24T02:26:38.694Z,-3.07
2019-01-24T02:29:44.011Z,-3.02
2019-01-24T02:32:49.213Z,-2.90
2019-01-24T02:35:54.494Z,-3.06
2019-01-24T02:38:59.552Z,-2.99
2019-01-24T02:42:04.725Z,-2.93
2019-01-24T02:45:12.032Z,-2.80
2019-01-24T02:48:17.244Z,-2.91
2019-01-24T02:51:22.434Z,-3.07
2019-01-24T02:54:27.562Z,-2.94
2019-01-24T02:57:32.726Z,-2.87
2019-01-24T03:00:37.856Z,-3.05
2019-01-24T03:03:43.087Z,-2.96
2019-01-24T03:06:48.216Z,-3.07
2019-01-24T03:09:56.559Z,-3.04
2019-01-24T03:13:02.731Z,-3.14
2019-01-24T03:16:07.860Z,-3.17
2019-01-24T03:19:13.107Z,-3.09
2019-01-24T03:22:18.224Z,-3.08
2019-01-24T03:25:23.393Z,-3.16
2019-01-24T03:28:28.532Z,-3.17
2019-01-24T03:31:33.705Z,-3.21
2019-01-24T03:34:38.814Z,-3.21
2019-01-24T03:37:43.977Z,-3.04
2019-01-24T03:40:49.153Z,-2.85
2019-01-24T03:43:54.306Z,-2.97
2019-01-24T03:47:00.407Z,-2.98
2019-01-24T03:50:06.282Z,-2.84
2019-01-24T03:53:11.481Z,-2.85
2019-01-24T03:56:16.601Z,-3.04
2019-01-24T03:59:21.659Z,-3.10
2019-01-24T04:02:26.969Z,-3.00
2019-01-24T04:05:32.130Z,-2.98
2019-01-24T04:08:37.299Z,-2.95
2019-01-24T04:11:42.490Z,-2.92
2019-01-24T04:14:47.624Z,-2.90
2019-01-24T04:17:52.935Z,-2.93
2019-01-24T04:20:57.997Z,-2.97
2019-01-24T04:24:03.182Z,-3.04
2019-01-24T04:27:08.411Z,-3.08
2019-01-24T04:30:18.583Z,-3.05
2019-01-24T04:33:23.880Z,-3.13
2019-01-24T04:36:29.078Z,-2.99
2019-01-24T04:39:34.271Z,-2.99
2019-01-24T04:42:39.373Z,-3.07
2019-01-24T04:45:44.471Z,-3.22
2019-01-24T04:48:49.624Z,-3.10
2019-01-24T04:51:54.735Z,-3.10
2019-01-24T04:54:59.919Z,-3.20
2019-01-24T04:58:05.112Z,-3.08
2019-01-24T05:01:10.370Z,-3.21
2019-01-24T05:04:15.607Z,-2.94
2019-01-24T05:07:20.757Z,-3.08
2019-01-24T05:10:25.873Z,-3.05
2019-01-24T05:13:31.074Z,-3.16
2019-01-24T05:16:36.219Z,-3.08
2019-01-24T05:19:41.674Z,-3.09
2019-01-24T05:22:46.814Z,-3.10
2019-01-24T05:25:51.904Z,-3.17
2019-01-24T05:28:57.104Z,-3.23
2019-01-24T05:32:02.246Z,-3.07
2019-01-24T05:35:09.184Z,-3.09
2019-01-24T05:38:16.194Z,-3.10
2019-01-24T05:41:21.349Z,-3.13
2019-01-24T05:44:26.471Z,-3.13
2019-01-24T05:47:31.787Z,-3.14
2019-01-24T05:50:36.945Z,-3.10
2019-01-24T05:53:42.043Z,-3.26
2019-01-24T05:56:47.187Z,-3.33
2019-01-24T05:59:52.411Z,-3.25
2019-01-24T06:02:57.546Z,-3.26
2019-01-24T06:06:02.708Z,-3.19
2019-01-24T06:09:08.644Z,-3.13
2019-01-24T06:12:13.754Z,-3.09
2019-01-24T06:15:18.944Z,-3.10
2019-01-24T06:18:24.082Z,-3.10
2019-01-24T06:21:29.195Z,-3.35
2019-01-24T06:24:34.339Z,-3.20
2019-01-24T06:27:39.505Z,-3.23
2019-01-24T06:30:44.635Z,-3.19
2019-01-24T06:33:49.824Z,-3.36
2019-01-24T06:36:54.954Z,-3.29
2019-01-24T06:40:00.117Z,-3.30
2019-01-24T06:43:05.271Z,-3.25
2019-01-24T06:46:10.548Z,-3.23
2019-01-24T06:49:15.816Z,-3.15
2019-01-24T06:52:20.990Z,-3.16
2019-01-24T06:55:28.026Z,-3.34
2019-01-24T06:58:33.191Z,-3.15
2019-01-24T07:01:38.287Z,-3.18
2019-01-24T07:04:43.567Z,-3.27
2019-01-24T07:07:48.928Z,-3.29
2019-01-24T07:10:54.042Z,-3.25
2019-01-24T07:13:59.161Z,-3.22
2019-01-24T07:17:04.326Z,-3.24
2019-01-24T07:20:10.602Z,-3.39
2019-01-24T07:23:15.697Z,-3.23
2019-01-24T07:26:20.841Z,-3.19
2019-01-24T07:29:26.049Z,-3.17
2019-01-24T07:32:31.282Z,-3.21
2019-01-24T07:35:36.389Z,-3.19
2019-01-24T07:38:41.584Z,-3.23
2019-01-24T07:41:46.804Z,-3.36
2019-01-24T07:44:51.904Z,-3.22
2019-01-24T07:47:57.034Z,-3.21
2019-01-24T07:51:02.223Z,-3.30
2019-01-24T07:54:07.306Z,-3.18
2019-01-24T07:57:12.549Z,-3.25
2019-01-24T08:00:23.247Z,-3.24
2019-01-24T08:03:28.435Z,-3.17
2019-01-24T08:06:33.549Z,-3.16
2019-01-24T08:09:38.756Z,-3.16
2019-01-24T08:12:43.806Z,-3.14
2019-01-24T08:15:49.019Z,-3.19
2019-01-24T08:18:54.330Z,-3.08
2019-01-24T08:21:59.509Z,-3.16
2019-01-24T08:25:05.217Z,-3.13
2019-01-24T08:28:18.206Z,-3.13
2019-01-24T08:31:19.177Z,-2.97
2019-01-24T08:34:24.475Z,-2.96
2019-01-24T08:37:29.574Z,-3.08
2019-01-24T08:40:34.738Z,-3.07
2019-01-24T08:43:39.823Z,-2.85
2019-01-24T08:46:45.004Z,-2.83
2019-01-24T08:49:50.098Z,-2.95
2019-01-24T08:52:55.376Z,-2.90
2019-01-24T08:56:00.542Z,-2.56
2019-01-24T08:59:07.495Z,-2.51
2019-01-24T09:02:14.216Z,-2.47
2019-01-24T09:05:19.677Z,-2.55
2019-01-24T09:08:24.854Z,-2.75
2019-01-24T09:11:30.033Z,-2.53
2019-01-24T09:14:35.191Z,-2.44
2019-01-24T09:17:40.444Z,-2.48
2019-01-24T09:20:45.587Z,-2.59
2019-01-24T09:23:50.803Z,-2.46
2019-01-24T09:26:55.955Z,-2.46
2019-01-24T09:30:01.188Z,-2.20
2019-01-24T09:33:06.369Z,-1.99
2019-01-24T09:36:11.546Z,-1.98
2019-01-24T09:39:16.689Z,-1.88
2019-01-24T09:42:21.798Z,-1.80
2019-01-24T09:45:28.596Z,-1.81
2019-01-24T09:48:33.781Z,-1.98
2019-01-24T09:51:38.969Z,-2.06
2019-01-24T09:54:44.090Z,-2.19
2019-01-24T09:57:49.260Z,-1.84
2019-01-24T10:00:54.491Z,-1.67
2019-01-24T10:03:59.676Z,-1.54
2019-01-24T10:07:04.779Z,-1.65
2019-01-24T10:10:18.536Z,-1.56
2019-01-24T10:13:23.759Z,-1.83
2019-01-24T10:16:28.905Z,-1.66
2019-01-24T10:19:34.125Z,-1.69
2019-01-24T10:22:39.287Z,-1.66
2019-01-24T10:25:44.406Z,-1.45
2019-01-24T10:28:49.643Z,-1.33
2019-01-24T10:31:54.780Z,-1.13
2019-01-24T10:34:59.934Z,-0.70
2019-01-24T10:38:05.356Z,-0.59
2019-01-24T10:41:10.516Z,-0.54
2019-01-24T10:44:15.675Z,-1.21
2019-01-24T10:47:20.844Z,-1.03
2019-01-24T10:50:26.483Z,-1.09
2019-01-24T10:53:31.652Z,-1.33
2019-01-24T10:56:36.751Z,-0.68
2019-01-24T10:59:41.910Z,-0.85
2019-01-24T11:02:46.999Z,-1.02
2019-01-24T11:05:52.140Z,-1.08
2019-01-24T11:08:57.316Z,-1.41
2019-01-24T11:12:02.406Z,-1.17
2019-01-24T11:15:10.563Z,-0.50
2019-01-24T11:18:16.813Z,-0.47
2019-01-24T11:21:22.021Z,-0.88
2019-01-24T11:24:27.189Z,-1.11
2019-01-24T11:27:32.358Z,-1.25
2019-01-24T11:30:37.499Z,-1.09
2019-01-24T11:33:42.658Z,-1.21
2019-01-24T11:36:47.829Z,-1.04
2019-01-24T11:39:52.945Z,-1.34
2019-01-24T11:42:58.058Z,-0.98
2019-01-24T11:46:03.199Z,-0.39
2019-01-24T11:49:08.361Z,-0.01
2019-01-24T11:52:13.611Z,-0.34
2019-01-24T11:55:20.114Z,-0.07
2019-01-24T11:58:25.309Z,-0.28
2019-01-24T12:01:30.469Z,-0.41
2019-01-24T12:04:35.616Z,-0.40
2019-01-24T12:07:41.781Z,-0.87
2019-01-24T12:10:46.904Z,-0.29
2019-01-24T12:13:52.104Z,-0.81
2019-01-24T12:16:58.411Z,-1.05
2019-01-24T12:20:03.534Z,-0.96
2019-01-24T12:23:08.702Z,-1.00
2019-01-24T12:26:13.782Z,-0.30
2019-01-24T12:29:18.929Z,-0.61
2019-01-24T12:32:24.102Z,-0.60
2019-01-24T12:35:29.436Z,-0.51
2019-01-24T12:38:35.692Z,-0.72
2019-01-24T12:41:40.943Z,-0.36
2019-01-24T12:44:46.053Z,-0.63
2019-01-24T12:47:51.258Z,-0.93
2019-01-24T12:50:56.377Z,-1.03
2019-01-24T12:54:01.567Z,-0.71
2019-01-24T12:57:06.694Z,-0.84
2019-01-24T13:00:15.402Z,-0.46
2019-01-24T13:03:20.536Z,-0.78
2019-01-24T13:06:25.680Z,-0.53
2019-01-24T13:09:30.870Z,-0.90
2019-01-24T13:12:35.982Z,-0.82
2019-01-24T13:15:41.258Z,-0.42
2019-01-24T13:18:46.433Z,-0.39
2019-01-24T13:21:57.706Z,-0.46
2019-01-24T13:25:02.852Z,-0.48
2019-01-24T13:28:08.325Z,-0.70
2019-01-24T13:31:13.452Z,-0.67
2019-01-24T13:34:18.575Z,-1.07
2019-01-24T13:37:25.855Z,-1.23
2019-01-24T13:40:31.812Z,-1.22
2019-01-24T13:43:37.103Z,-0.88
2019-01-24T13:46:42.262Z,-1.03
2019-01-24T13:49:47.453Z,-1.11
2019-01-24T13:52:52.812Z,-1.03
2019-01-24T13:55:57.990Z,-1.14
2019-01-24T13:59:03.422Z,-1.33
2019-01-24T14:02:08.591Z,-1.20
2019-01-24T14:05:14.864Z,-0.96
2019-01-24T14:08:19.950Z,-1.09
2019-01-24T14:11:25.171Z,-1.10
2019-01-24T14:14:30.344Z,-1.25
2019-01-24T14:17:35.442Z,-1.30
2019-01-24T14:20:40.636Z,-1.33
2019-01-24T14:23:46.850Z,-1.46
2019-01-24T14:26:51.980Z,-1.44
2019-01-24T14:29:57.154Z,-1.56
2019-01-24T14:33:02.271Z,-1.64
2019-01-24T14:36:07.754Z,-1.71
2019-01-24T14:39:12.966Z,-1.41
2019-01-24T14:42:18.135Z,-1.56
2019-01-24T14:45:24.158Z,-1.81
2019-01-24T14:48:29.321Z,-1.77
2019-01-24T14:51:34.466Z,-1.87
2019-01-24T14:54:39.581Z,-1.69
2019-01-24T14:57:44.890Z,-1.58
2019-01-24T15:01:01.839Z,-1.72
2019-01-24T15:04:07.004Z,-1.59
2019-01-24T15:07:12.253Z,-1.58
2019-01-24T15:10:18.419Z,-1.67
2019-01-24T15:13:23.779Z,-1.69
2019-01-24T15:16:28.977Z,-1.89
2019-01-24T15:19:34.170Z,-1.77
2019-01-24T15:22:39.342Z,-1.92
2019-01-24T15:25:44.985Z,-1.73
2019-01-24T15:28:50.341Z,-1.72
2019-01-24T15:31:55.527Z,-1.83
2019-01-24T15:35:00.765Z,-1.93
2019-01-24T15:38:06.059Z,-1.92
2019-01-24T15:41:12.714Z,-1.97
2019-01-24T15:44:18.117Z,-1.87
2019-01-24T15:47:23.331Z,-1.76
2019-01-24T15:50:28.548Z,-2.03
2019-01-24T15:53:33.741Z,-2.13
2019-01-24T15:56:38.945Z,-2.12
2019-01-24T15:59:44.137Z,-2.11
2019-01-24T16:02:49.491Z,-2.12
2019-01-24T16:05:54.679Z,-2.18
2019-01-24T16:08:59.922Z,-2.16
2019-01-24T16:12:06.694Z,-2.12
2019-01-24T16:15:15.194Z,-2.22
2019-01-24T16:18:20.355Z,-2.35
2019-01-24T16:21:25.546Z,-2.33
2019-01-24T16:24:30.687Z,-2.25
2019-01-24T16:27:35.877Z,-2.37
2019-01-24T16:30:41.067Z,-2.34
2019-01-24T16:33:46.222Z,-2.47
2019-01-24T16:36:51.428Z,-2.32
2019-01-24T16:39:56.573Z,-2.46
2019-01-24T16:43:01.857Z,-2.33
2019-01-24T16:46:07.142Z,-2.21
2019-01-24T16:49:12.270Z,-2.37
2019-01-24T16:52:17.364Z,-2.35
2019-01-24T16:55:22.883Z,-2.65
2019-01-24T16:58:27.974Z,-2.73
2019-01-24T17:01:33.178Z,-2.71
2019-01-24T17:04:38.333Z,-2.70
2019-01-24T17:07:43.489Z,-2.68
2019-01-24T17:10:49.462Z,-2.78
2019-01-24T17:13:54.649Z,-2.71
2019-01-24T17:16:59.870Z,-2.91
2019-01-24T17:20:25.722Z,-2.90
2019-01-24T17:23:30.962Z,-2.85
2019-01-24T17:26:36.130Z,-2.78
2019-01-24T17:29:41.335Z,-2.83
2019-01-24T17:32:46.800Z,-2.79
2019-01-24T17:35:51.998Z,-2.90
2019-01-24T17:39:00.729Z,-2.70
2019-01-24T17:42:07.664Z,-2.75
2019-01-24T17:45:14.019Z,-2.96
2019-01-24T17:48:19.251Z,-2.81
2019-01-24T17:51:24.445Z,-2.96
2019-01-24T17:54:29.631Z,-2.93
2019-01-24T17:57:34.924Z,-2.92
2019-01-24T18:00:43.708Z,-2.93
2019-01-24T18:03:49.040Z,-3.03
2019-01-24T18:06:54.294Z,-3.13
2019-01-24T18:09:59.433Z,-3.13
2019-01-24T18:13:04.613Z,-3.17
2019-01-24T18:16:09.812Z,-3.12
2019-01-24T18:19:15.058Z,-2.96
2019-01-24T18:22:20.309Z,-3.06
2019-01-24T18:25:25.503Z,-2.98
2019-01-24T18:28:30.649Z,-3.07
2019-01-24T18:31:35.830Z,-3.05
2019-01-24T18:34:40.953Z,-3.12
2019-01-24T18:37:46.185Z,-3.10
2019-01-24T18:40:51.368Z,-3.13
2019-01-24T18:43:56.581Z,-3.15
2019-01-24T18:47:01.789Z,-3.12
2019-01-24T18:50:10.174Z,-3.17
2019-01-24T18:53:15.352Z,-3.18
2019-01-24T18:56:20.568Z,-3.18
2019-01-24T18:59:25.751Z,-3.23
2019-01-24T19:02:30.998Z,-3.23
2019-01-24T19:05:36.118Z,-3.24
2019-01-24T19:08:45.843Z,-3.20
2019-01-24T19:11:48.448Z,-3.22
2019-01-24T19:14:53.608Z,-3.22
2019-01-24T19:17:58.873Z,-3.25
2019-01-24T19:21:04.423Z,-3.29
2019-01-24T19:24:09.657Z,-3.25
2019-01-24T19:27:14.892Z,-3.26
2019-01-24T19:30:25.669Z,-3.14
2019-01-24T19:33:30.859Z,-3.27
2019-01-24T19:36:36.240Z,-3.18
2019-01-24T19:39:41.424Z,-3.30
2019-01-24T19:42:46.633Z,-3.21
2019-01-24T19:45:52.011Z,-3.18
2019-01-24T19:48:57.220Z,-3.24
2019-01-24T19:52:02.383Z,-3.26
2019-01-24T19:55:08.622Z,-3.20
2019-01-24T19:58:13.794Z,-3.28
2019-01-24T20:01:18.944Z,-3.40
2019-01-24T20:04:24.090Z,-3.32
2019-01-24T20:07:29.304Z,-3.30
2019-01-24T20:10:35.513Z,-3.40
2019-01-24T20:13:42.794Z,-3.34
2019-01-24T20:16:47.669Z,-3.32
2019-01-24T20:19:53.025Z,-3.28
2019-01-24T20:22:58.185Z,-3.12
2019-01-24T20:26:03.335Z,-3.22
2019-01-24T20:29:08.511Z,-3.25
2019-01-24T20:32:13.692Z,-3.34
2019-01-24T20:35:21.529Z,-3.39
2019-01-24T20:38:26.738Z,-3.35
2019-01-24T20:41:31.885Z,-3.39
2019-01-24T20:44:37.083Z,-3.41
2019-01-24T20:47:42.193Z,-3.43
2019-01-24T20:50:48.467Z,-3.37
2019-01-24T20:53:53.733Z,-3.23
2019-01-24T20:56:58.935Z,-3.28
2019-01-24T21:00:05.731Z,-3.22
2019-01-24T21:03:10.939Z,-3.39
2019-01-24T21:06:17.289Z,-3.26
2019-01-24T21:09:22.440Z,-3.21
2019-01-24T21:12:27.620Z,-3.23
2019-01-24T21:15:32.786Z,-3.16
2019-01-24T21:18:37.983Z,-3.20
2019-01-24T21:21:43.193Z,-3.12
2019-01-24T21:24:48.293Z,-3.21
2019-01-24T21:27:53.466Z,-3.21
2019-01-24T21:30:58.664Z,-3.22
2019-01-24T21:34:03.763Z,-3.18
2019-01-24T21:37:10.509Z,-3.20
2019-01-24T21:40:17.703Z,-3.25
2019-01-24T21:43:22.787Z,-3.19
2019-01-24T21:46:28.085Z,-3.13
2019-01-24T21:49:33.224Z,-3.08
2019-01-24T21:52:38.459Z,-3.09
2019-01-24T21:55:43.597Z,-3.20
2019-01-24T21:58:48.849Z,-3.21
2019-01-24T22:01:54.017Z,-3.18
2019-01-24T22:04:59.238Z,-3.12
2019-01-24T22:08:04.719Z,-3.22
2019-01-24T22:11:09.915Z,-3.18
2019-01-24T22:14:15.095Z,-3.22
2019-01-24T22:17:20.355Z,-3.21
2019-01-24T22:20:25.490Z,-3.22
2019-01-24T22:23:30.629Z,-3.18
2019-01-24T22:26:35.838Z,-3.15
2019-01-24T22:29:40.983Z,-3.21
2019-01-24T22:32:46.146Z,-3.16
2019-01-24T22:35:51.266Z,-3.16
2019-01-24T22:38:56.416Z,-3.01
2019-01-24T22:42:01.607Z,-3.18
2019-01-24T22:45:08.190Z,-3.14
2019-01-24T22:48:13.377Z,-3.03
2019-01-24T22:51:18.570Z,-3.18
2019-01-24T22:54:23.729Z,-3.20
2019-01-24T22:57:28.939Z,-3.15
2019-01-24T23:01:14.564Z,-3.20
2019-01-24T23:04:24.806Z,-3.24
2019-01-24T23:07:29.946Z,-3.17
2019-01-24T23:10:35.057Z,-3.24
2019-01-24T23:13:40.238Z,-3.05
2019-01-24T23:16:45.407Z,-3.23
2019-01-24T23:19:50.568Z,-3.15
2019-01-24T23:22:55.731Z,-3.18
2019-01-24T23:26:00.924Z,-3.19
2019-01-24T23:29:06.425Z,-3.07
2019-01-24T23:32:11.711Z,-3.15
2019-01-24T23:35:16.989Z,-3.16
2019-01-24T23:38:22.292Z,-3.19
2019-01-24T23:41:27.459Z,-3.29
2019-01-24T23:44:32.633Z,-3.10
2019-01-24T23:47:37.864Z,-3.08
2019-01-24T23:50:42.997Z,-3.13
2019-01-24T23:53:48.220Z,-3.03
2019-01-24T23:56:53.364Z,-3.03
2019-01-24T23:59:58.591Z,-3.07
